Time;durP1;ratioP1;P1;durP2;ratioP2;P2;SDS_P1;SDS_P2;PMS_P1;PMS_P2;Temp;Humidity;BMP_temperature;BMP_pressure;BME280_temperature;BME280_humidity;BME280_pressure;Samples;Min_cycle;Max_cycle;Signal;HPM_P1;HPM_P2
2023/06/22 00:02:16;;;;;;;13.98;10.38;;;19.90;99.90;;;;;;10327934;28;20260;-86
2023/06/22 00:07:19;;;;;;;11.27;9.43;;;20.10;99.90;;;;;;10311274;28;20303;-86
2023/06/22 00:12:21;;;;;;;14.30;12.75;;;19.90;99.90;;;;;;10327862;28;20292;-86
2023/06/22 00:17:24;;;;;;;16.38;12.52;;;19.80;99.90;;;;;;10328587;28;20264;-86
2023/06/22 00:22:29;;;;;;;10.93;9.93;;;19.70;99.90;;;;;;10285148;28;20292;-86
2023/06/22 00:27:32;;;;;;;13.55;12.15;;;19.60;99.90;;;;;;10270580;28;20280;-86
2023/06/22 00:32:34;;;;;;;11.35;10.15;;;19.40;99.90;;;;;;10274482;28;20299;-86
2023/06/22 00:37:40;;;;;;;10.75;9.68;;;19.50;99.90;;;;;;10269771;28;20740;-87
2023/06/22 00:42:43;;;;;;;12.57;9.80;;;19.40;99.90;;;;;;10297144;28;20204;-86
2023/06/22 00:47:45;;;;;;;15.82;8.95;;;19.30;99.90;;;;;;10308907;28;20272;-86
2023/06/22 00:52:52;;;;;;;11.27;9.65;;;19.50;99.90;;;;;;10299079;28;20237;-86
2023/06/22 00:57:55;;;;;;;16.10;12.35;;;19.50;99.90;;;;;;10269148;28;20308;-86
2023/06/22 01:02:58;;;;;;;12.05;10.85;;;19.50;99.90;;;;;;10299821;28;20731;-86
2023/06/22 01:08:20;;;;;;;13.45;12.05;;;19.30;99.90;;;;;;10308973;28;20754;-86
2023/06/22 01:13:26;;;;;;;12.70;10.55;;;19.10;99.90;;;;;;10309097;28;20687;-86
2023/06/22 01:18:32;;;;;;;12.07;10.80;;;19.10;99.90;;;;;;10312222;28;20326;-86
2023/06/22 01:23:35;;;;;;;11.68;10.15;;;19.00;99.90;;;;;;10334877;28;20260;-86
2023/06/22 01:28:47;;;;;;;12.65;11.35;;;19.00;99.90;;;;;;10316956;28;20236;-86
2023/06/22 01:33:56;;;;;;;12.13;9.25;;;18.90;99.90;;;;;;10316915;28;20293;-86
2023/06/22 01:39:00;;;;;;;10.70;9.35;;;18.80;99.90;;;;;;10334240;28;20661;-86
2023/06/22 01:44:07;;;;;;;16.95;11.10;;;18.80;99.90;;;;;;10317128;28;20240;-86
2023/06/22 01:49:10;;;;;;;11.63;10.52;;;18.60;99.90;;;;;;10316483;28;20213;-86
2023/06/22 01:54:13;;;;;;;15.07;9.52;;;18.50;99.90;;;;;;10333896;28;20248;-85
2023/06/22 01:59:42;;;;;;;9.07;7.18;;;18.60;99.90;;;;;;10314958;28;20261;-86
2023/06/22 02:05:03;;;;;;;9.80;8.80;;;18.60;99.90;;;;;;10232059;29;20242;-86
2023/06/22 02:10:07;;;;;;;17.77;13.15;;;18.80;99.90;;;;;;10231898;29;20233;-86
2023/06/22 02:15:12;;;;;;;11.65;10.25;;;18.80;99.90;;;;;;10208325;29;20247;-86
2023/06/22 02:20:15;;;;;;;16.50;14.70;;;18.90;99.90;;;;;;10217872;29;20329;-86
2023/06/22 02:25:19;;;;;;;13.10;9.35;;;18.90;99.90;;;;;;10247335;29;20250;-86
2023/06/22 02:30:21;;;;;;;27.00;12.60;;;19.10;99.90;;;;;;10246981;28;20277;-86
2023/06/22 02:35:26;;;;;;;13.02;10.82;;;19.10;99.90;;;;;;10215829;29;20313;-86
2023/06/22 02:40:29;;;;;;;11.77;10.38;;;19.10;99.90;;;;;;10273057;28;20293;-86
2023/06/22 02:45:32;;;;;;;33.20;16.38;;;19.20;99.90;;;;;;10314950;28;20240;-85
2023/06/22 02:50:35;;;;;;;37.60;16.23;;;19.10;99.90;;;;;;10331527;28;20766;-86
2023/06/22 02:55:39;;;;;;;19.02;15.02;;;18.90;99.90;;;;;;10313641;28;20271;-86
2023/06/22 03:00:43;;;;;;;14.80;10.82;;;18.80;99.90;;;;;;10313459;28;20303;-86
2023/06/22 03:05:46;;;;;;;14.18;12.70;;;18.90;99.90;;;;;;10331363;28;20260;-86
2023/06/22 03:10:48;;;;;;;12.30;11.10;;;18.80;99.90;;;;;;10313602;28;20250;-86
2023/06/22 03:15:51;;;;;;;14.25;12.85;;;19.10;99.90;;;;;;10313119;28;20295;-86
2023/06/22 03:20:53;;;;;;;11.70;10.38;;;19.20;99.90;;;;;;10312733;28;20268;-86
2023/06/22 03:25:56;;;;;;;9.68;8.75;;;19.30;99.90;;;;;;10312732;28;20291;-85
2023/06/22 03:30:58;;;;;;;8.82;7.93;;;19.50;99.90;;;;;;10312015;28;20695;-85
2023/06/22 03:36:01;;;;;;;9.70;8.75;;;19.60;99.90;;;;;;10296542;28;20245;-84
2023/06/22 03:41:04;;;;;;;9.48;8.65;;;19.50;99.90;;;;;;10310632;28;20315;-85
2023/06/22 03:46:07;;;;;;;8.38;7.47;;;19.50;99.90;;;;;;10312248;28;20707;-85
2023/06/22 03:51:09;;;;;;;12.18;9.80;;;19.60;99.90;;;;;;10312027;28;20233;-84
2023/06/22 03:56:12;;;;;;;8.93;7.93;;;19.60;99.90;;;;;;10329930;28;20228;-85
2023/06/22 04:01:16;;;;;;;9.05;8.25;;;19.60;99.90;;;;;;10328610;28;20257;-85
2023/06/22 04:06:19;;;;;;;9.13;8.23;;;19.50;99.90;;;;;;10329179;28;20241;-85
2023/06/22 04:11:22;;;;;;;9.80;8.90;;;19.40;99.90;;;;;;10300076;28;20241;-85
2023/06/22 04:16:24;;;;;;;11.00;9.65;;;19.40;99.90;;;;;;10269402;28;20268;-85
2023/06/22 04:21:27;;;;;;;8.40;7.60;;;19.50;99.90;;;;;;10316649;28;20256;-85
2023/06/22 04:26:29;;;;;;;6.85;6.20;;;19.60;99.90;;;;;;10327662;28;20311;-85
2023/06/22 04:31:36;;;;;;;9.98;8.88;;;19.80;99.90;;;;;;10327205;28;20248;-85
2023/06/22 04:36:40;;;;;;;12.05;8.70;;;19.90;99.90;;;;;;10310129;28;20286;-85
2023/06/22 04:41:43;;;;;;;10.45;8.90;;;19.80;99.90;;;;;;10309200;28;20264;-85
2023/06/22 04:46:45;;;;;;;8.38;7.50;;;19.90;99.90;;;;;;10327099;28;20600;-85
2023/06/22 04:51:51;;;;;;;9.18;8.00;;;20.00;99.90;;;;;;10326956;28;20268;-85
2023/06/22 04:56:57;;;;;;;7.97;7.25;;;19.90;99.90;;;;;;10309011;28;20313;-85
2023/06/22 05:02:02;;;;;;;10.57;7.95;;;19.90;99.90;;;;;;10290499;28;20265;-86
2023/06/22 05:07:05;;;;;;;8.82;7.88;;;19.90;99.90;;;;;;10267528;28;20320;-86
2023/06/22 05:12:08;;;;;;;7.63;6.25;;;20.00;99.90;;;;;;10294838;28;20268;-86
2023/06/22 05:17:13;;;;;;;7.70;6.32;;;20.20;99.90;;;;;;10283972;28;20241;-86
2023/06/22 05:22:18;;;;;;;7.80;7.10;;;20.10;99.90;;;;;;10285550;28;20323;-86
2023/06/22 05:27:20;;;;;;;9.93;6.82;;;20.30;99.90;;;;;;10287262;28;20232;-88
2023/06/22 05:32:23;;;;;;;5.30;4.80;;;20.40;99.90;;;;;;10301631;28;20246;-86
2023/06/22 05:37:26;;;;;;;7.40;6.00;;;20.50;99.90;;;;;;10268469;28;20280;-87
2023/06/22 05:42:28;;;;;;;7.97;5.45;;;20.60;99.90;;;;;;10301677;28;20268;-87
2023/06/22 05:47:31;;;;;;;9.10;5.57;;;20.60;99.90;;;;;;10273603;28;20242;-87
2023/06/22 05:52:34;;;;;;;11.13;5.45;;;20.50;99.90;;;;;;10287535;28;20633;-87
2023/06/22 05:57:36;;;;;;;6.45;5.85;;;20.50;99.90;;;;;;10284382;28;20260;-87
2023/06/22 06:02:43;;;;;;;5.68;5.13;;;20.60;99.90;;;;;;10299416;28;20256;-87
2023/06/22 06:07:46;;;;;;;5.85;5.25;;;20.70;99.90;;;;;;10330698;28;20236;-87
2023/06/22 06:12:49;;;;;;;7.07;6.18;;;20.80;99.90;;;;;;10331956;28;20292;-87
2023/06/22 06:17:53;;;;;;;6.78;6.00;;;20.90;99.90;;;;;;10331883;28;20808;-87
2023/06/22 06:22:56;;;;;;;5.60;5.10;;;20.70;99.90;;;;;;10331012;28;20256;-87
2023/06/22 06:27:58;;;;;;;8.43;5.38;;;20.80;99.90;;;;;;10331552;28;20681;-86
2023/06/22 06:33:01;;;;;;;6.95;5.38;;;21.00;99.90;;;;;;10331506;28;20244;-87
2023/06/22 06:38:03;;;;;;;5.78;4.95;;;21.20;99.90;;;;;;10331826;28;20283;-88
2023/06/22 06:43:06;;;;;;;6.13;4.93;;;21.20;99.90;;;;;;10313834;28;20245;-87
2023/06/22 06:48:09;;;;;;;8.15;4.78;;;21.30;99.90;;;;;;10329379;28;20643;-88
2023/06/22 06:53:11;;;;;;;5.15;4.63;;;21.40;99.90;;;;;;10318160;28;20248;-87
2023/06/22 06:58:14;;;;;;;5.18;4.15;;;21.60;99.90;;;;;;10313889;28;20279;-86
2023/06/22 07:03:17;;;;;;;5.72;5.10;;;21.70;99.90;;;;;;10331159;28;20296;-88
2023/06/22 07:08:20;;;;;;;5.03;4.53;;;21.70;99.90;;;;;;10316345;28;20712;-88
2023/06/22 07:13:22;;;;;;;5.57;5.07;;;21.90;99.90;;;;;;10326660;28;20313;-88
2023/06/22 07:18:26;;;;;;;4.75;4.35;;;22.00;99.90;;;;;;10330139;28;20275;-87
2023/06/22 07:23:28;;;;;;;6.70;4.30;;;22.10;99.90;;;;;;10287796;28;20292;-87
2023/06/22 07:28:36;;;;;;;8.18;3.42;;;22.30;99.90;;;;;;10291498;28;20288;-87
2023/06/22 07:33:39;;;;;;;5.43;4.68;;;22.40;96.60;;;;;;10320264;28;20241;-87
2023/06/22 07:38:41;;;;;;;5.30;3.72;;;22.40;99.90;;;;;;10318857;28;20298;-87
2023/06/22 07:43:44;;;;;;;5.30;4.47;;;22.60;97.40;;;;;;10311842;28;20300;-88
2023/06/22 07:48:46;;;;;;;5.10;3.78;;;22.80;99.90;;;;;;10322902;28;20296;-87
2023/06/22 07:53:49;;;;;;;3.92;3.63;;;23.00;99.90;;;;;;10311399;28;20248;-88
2023/06/22 07:58:53;;;;;;;3.83;2.88;;;23.20;99.90;;;;;;10328291;28;20272;-86
2023/06/22 08:03:55;;;;;;;3.83;3.42;;;23.10;92.60;;;;;;10336636;28;20253;-89
2023/06/22 08:08:58;;;;;;;6.90;3.97;;;23.10;95.10;;;;;;10328454;28;20636;-89
2023/06/22 08:14:01;;;;;;;5.25;4.13;;;23.20;94.60;;;;;;10332750;28;20686;-89
2023/06/22 08:19:04;;;;;;;5.53;3.47;;;23.40;94.70;;;;;;10335013;28;20689;-88
2023/06/22 08:24:07;;;;;;;7.60;3.75;;;23.40;90.60;;;;;;10354357;28;20725;-89
2023/06/22 08:29:10;;;;;;;4.25;3.40;;;23.60;94.00;;;;;;10335217;28;20236;-87
2023/06/22 08:34:13;;;;;;;4.50;2.90;;;23.70;93.50;;;;;;10349981;28;20267;-88
2023/06/22 08:39:20;;;;;;;3.35;3.05;;;23.90;83.80;;;;;;10342005;28;20259;-88
2023/06/22 08:44:22;;;;;;;5.95;3.30;;;23.90;88.90;;;;;;10367524;28;20290;-88
2023/06/22 08:49:25;;;;;;;4.93;3.90;;;24.10;86.50;;;;;;10354531;28;20628;-88
2023/06/22 08:54:28;;;;;;;3.88;3.30;;;24.20;87.10;;;;;;10357788;28;20294;-88
2023/06/22 08:59:31;;;;;;;3.85;3.45;;;24.40;90.30;;;;;;10338352;28;20265;-88
2023/06/22 09:04:36;;;;;;;3.92;3.53;;;24.50;91.10;;;;;;10291232;28;20241;-89
2023/06/22 09:09:39;;;;;;;4.05;3.55;;;24.70;91.80;;;;;;10283913;28;20629;-90
2023/06/22 09:14:42;;;;;;;3.15;2.88;;;24.90;93.80;;;;;;10285264;28;20237;-90
2023/06/22 09:19:44;;;;;;;4.25;2.72;;;24.90;90.30;;;;;;10283786;28;20261;-90
2023/06/22 09:24:47;;;;;;;3.13;2.83;;;24.90;69.60;;;;;;10285474;28;20229;-90
2023/06/22 09:29:50;;;;;;;3.42;3.13;;;25.00;72.10;;;;;;10268201;28;20320;-90
2023/06/22 09:34:53;;;;;;;4.80;2.75;;;25.10;78.70;;;;;;10284976;28;20245;-90
2023/06/22 09:39:55;;;;;;;4.60;3.83;;;25.00;69.00;;;;;;10285940;28;20664;-87
2023/06/22 09:44:58;;;;;;;2.90;2.60;;;25.10;67.40;;;;;;10274293;28;20233;-88
2023/06/22 09:50:00;;;;;;;3.35;2.80;;;25.20;55.70;;;;;;10292432;28;20241;-87
2023/06/22 09:55:03;;;;;;;4.15;3.80;;;25.10;60.20;;;;;;10292425;28;20233;-87
2023/06/22 10:00:09;;;;;;;4.18;3.28;;;25.30;72.30;;;;;;10292293;28;20315;-88
2023/06/22 10:05:12;;;;;;;3.45;3.15;;;25.30;60.70;;;;;;10291810;28;20237;-90
2023/06/22 10:10:15;;;;;;;6.88;2.72;;;25.40;65.80;;;;;;10289853;28;20296;-87
2023/06/22 10:15:19;;;;;;;3.85;3.28;;;25.40;57.70;;;;;;10290123;28;20722;-86
2023/06/22 10:20:22;;;;;;;3.75;3.45;;;25.60;76.40;;;;;;10291522;28;20261;-87
2023/06/22 10:25:24;;;;;;;3.83;2.92;;;25.70;74.70;;;;;;9257354;28;10000630;-89
2023/06/22 10:30:28;;;;;;;3.97;3.22;;;25.60;55.80;;;;;;10287738;28;20708;-90
2023/06/22 10:35:31;;;;;;;4.00;3.13;;;25.70;58.70;;;;;;10290142;28;20232;-89
2023/06/22 10:40:34;;;;;;;3.72;3.42;;;25.80;59.60;;;;;;9939642;28;9999744;-89
2023/06/22 10:45:37;;;;;;;3.53;3.22;;;25.90;64.20;;;;;;10268595;28;20296;-90
2023/06/22 10:50:39;;;;;;;3.55;3.25;;;26.00;50.90;;;;;;10268238;28;20241;-90
2023/06/22 10:55:42;;;;;;;3.50;2.88;;;26.00;52.20;;;;;;10284891;28;20257;-89
2023/06/22 11:00:59;;;;;;;4.95;3.38;;;26.10;46.80;;;;;;10282925;28;20346;-87
2023/06/22 11:06:01;;;;;;;3.73;3.43;;;26.10;51.80;;;;;;9989728;28;9999676;-88
2023/06/22 11:11:04;;;;;;;3.00;2.63;;;26.20;65.50;;;;;;10327008;28;20479;-88
2023/06/22 11:16:06;;;;;;;3.22;2.92;;;26.30;48.30;;;;;;10314054;28;20294;-88
2023/06/22 11:21:09;;;;;;;3.50;3.00;;;26.40;50.50;;;;;;9996494;28;10000459;-88
2023/06/22 11:26:12;;;;;;;7.15;3.78;;;26.40;51.50;;;;;;10313288;28;20244;-89
2023/06/22 11:31:14;;;;;;;3.60;3.30;;;26.40;37.30;;;;;;10328283;28;20583;-88
2023/06/22 11:36:32;;;;;;;3.40;3.10;;;26.60;55.70;;;;;;10350366;28;20693;-88
2023/06/22 11:41:35;;;;;;;4.82;3.53;;;26.60;47.50;;;;;;10340780;28;20263;-88
2023/06/22 11:46:37;;;;;;;5.15;3.40;;;26.60;39.70;;;;;;10340542;28;20244;-89
2023/06/22 11:51:40;;;;;;;3.70;3.40;;;26.80;51.50;;;;;;10330007;28;20248;-89
2023/06/22 11:56:42;;;;;;;3.95;3.60;;;26.70;41.90;;;;;;10342991;28;20303;-89
2023/06/22 12:01:46;;;;;;;3.63;3.33;;;26.70;49.80;;;;;;10341040;28;20635;-89
2023/06/22 12:06:48;;;;;;;3.88;3.33;;;26.80;40.70;;;;;;10321525;28;20227;-89
2023/06/22 12:11:51;;;;;;;3.58;3.15;;;26.80;47.50;;;;;;10355363;28;20263;-89
2023/06/22 12:16:54;;;;;;;3.85;3.42;;;26.90;34.60;;;;;;10339021;28;20311;-88
2023/06/22 12:21:56;;;;;;;3.00;2.80;;;26.90;46.30;;;;;;10347058;28;20307;-88
2023/06/22 12:26:59;;;;;;;5.32;3.17;;;27.00;54.00;;;;;;10332022;28;20228;-89
2023/06/22 12:32:01;;;;;;;3.40;3.10;;;27.10;44.20;;;;;;10350194;28;20298;-89
2023/06/22 12:37:05;;;;;;;3.58;3.28;;;27.20;46.10;;;;;;10330745;28;20235;-88
2023/06/22 12:42:08;;;;;;;3.55;3.25;;;27.20;37.00;;;;;;10329242;28;20280;-88
2023/06/22 12:47:14;;;;;;;5.43;3.40;;;27.20;40.50;;;;;;10338677;28;20240;-86
2023/06/22 12:52:22;;;;;;;5.28;3.67;;;27.20;43.30;;;;;;10317832;28;20237;-85
2023/06/22 12:57:25;;;;;;;4.35;3.95;;;27.30;45.00;;;;;;10338113;28;20231;-86
2023/06/22 13:02:28;;;;;;;4.30;3.15;;;27.40;37.50;;;;;;10281159;28;20719;-86
2023/06/22 13:07:30;;;;;;;3.55;3.25;;;27.40;37.80;;;;;;10285526;28;20237;-87
2023/06/22 13:12:34;;;;;;;3.53;3.22;;;27.40;38.20;;;;;;10285443;28;20295;-86
2023/06/22 13:17:36;;;;;;;4.63;3.47;;;27.50;49.50;;;;;;9946129;28;10000433;-86
2023/06/22 13:22:43;;;;;;;3.88;3.45;;;27.40;37.30;;;;;;10288118;28;20723;-87
2023/06/22 13:27:46;;;;;;;3.88;3.40;;;27.40;45.00;;;;;;10272895;28;20233;-88
2023/06/22 13:32:48;;;;;;;3.60;3.30;;;27.50;38.80;;;;;;10293458;28;20217;-90
2023/06/22 13:37:51;;;;;;;4.05;3.75;;;27.60;39.30;;;;;;10293348;28;20241;-89
2023/06/22 13:42:54;;;;;;;3.83;3.53;;;27.70;51.10;;;;;;10292088;28;20316;-89
2023/06/22 13:47:57;;;;;;;4.10;3.70;;;27.90;41.40;;;;;;10293110;28;20261;-85
2023/06/22 13:53:00;;;;;;;3.65;3.35;;;28.10;40.60;;;;;;10274453;28;20304;-85
2023/06/22 13:58:03;;;;;;;6.10;4.25;;;28.30;35.70;;;;;;10293352;28;20241;-84
2023/06/22 14:03:05;;;;;;;6.30;3.83;;;28.40;38.90;;;;;;10324734;28;20703;-85
2023/06/22 14:08:09;;;;;;;4.95;4.18;;;28.30;34.30;;;;;;10315249;28;20762;-86
2023/06/22 14:13:31;;;;;;;4.03;3.65;;;28.30;39.10;;;;;;10317812;28;20278;-85
2023/06/22 14:18:34;;;;;;;5.45;4.90;;;28.00;38.40;;;;;;10332034;28;20237;-86
2023/06/22 14:23:37;;;;;;;5.07;4.65;;;27.70;36.50;;;;;;10314183;28;20314;-86
2023/06/22 14:28:40;;;;;;;4.35;3.95;;;27.60;47.70;;;;;;10313958;28;20283;-86
2023/06/22 14:33:47;;;;;;;4.70;4.30;;;27.70;43.00;;;;;;10332024;28;20230;-86
2023/06/22 14:38:50;;;;;;;4.43;4.03;;;27.60;49.30;;;;;;10314724;28;20252;-86
2023/06/22 14:43:52;;;;;;;5.80;5.20;;;27.50;44.10;;;;;;10331534;28;20330;-86
2023/06/22 14:48:55;;;;;;;5.00;4.60;;;27.60;46.70;;;;;;10331051;28;20608;-86
2023/06/22 14:53:57;;;;;;;4.88;4.47;;;27.70;50.90;;;;;;10311465;28;20675;-86
2023/06/22 14:59:00;;;;;;;4.57;4.18;;;27.70;51.10;;;;;;10272645;28;20257;-86
2023/06/22 15:04:02;;;;;;;5.95;4.13;;;27.70;48.30;;;;;;10329702;28;20268;-86
2023/06/22 15:09:05;;;;;;;4.07;3.67;;;27.60;38.20;;;;;;10330892;28;20245;-85
2023/06/22 15:14:07;;;;;;;5.40;4.90;;;27.60;45.80;;;;;;10329777;28;20695;-86
2023/06/22 15:19:12;;;;;;;4.60;3.72;;;27.60;47.00;;;;;;10327844;28;20340;-87
2023/06/22 15:24:15;;;;;;;4.75;4.25;;;27.50;41.80;;;;;;10329913;28;20314;-87
2023/06/22 15:29:17;;;;;;;4.75;4.28;;;27.50;41.30;;;;;;10311856;28;20636;-90
2023/06/22 15:34:20;;;;;;;6.32;4.28;;;27.50;39.60;;;;;;10311725;28;20249;-90
2023/06/22 15:39:26;;;;;;;5.65;4.38;;;27.30;33.00;;;;;;10295536;28;20241;-90
2023/06/22 15:44:29;;;;;;;7.07;4.47;;;27.30;40.10;;;;;;10289381;28;20661;-90
2023/06/22 15:49:31;;;;;;;3.03;2.83;;;27.30;40.90;;;;;;10289949;28;20249;-86
2023/06/22 15:54:34;;;;;;;4.25;3.83;;;27.30;44.20;;;;;;10289027;28;20295;-86
2023/06/22 15:59:36;;;;;;;5.47;3.85;;;27.20;42.10;;;;;;10328712;28;20342;-86
2023/06/22 16:04:39;;;;;;;4.10;3.70;;;27.20;45.10;;;;;;10311423;28;20698;-86
2023/06/22 16:09:41;;;;;;;4.22;3.72;;;27.20;46.20;;;;;;10328593;28;20244;-86
2023/06/22 16:14:44;;;;;;;3.88;3.55;;;27.20;43.90;;;;;;10327469;28;20244;-85
2023/06/22 16:19:47;;;;;;;5.80;4.55;;;27.30;45.50;;;;;;10309865;28;21023;-90
2023/06/22 16:24:49;;;;;;;5.25;4.75;;;27.30;45.20;;;;;;10284828;28;20295;-86
2023/06/22 16:29:54;;;;;;;4.20;3.80;;;27.40;38.00;;;;;;10310000;28;20679;-86
2023/06/22 16:34:57;;;;;;;4.13;3.70;;;27.40;42.20;;;;;;10361040;28;20290;-86
2023/06/22 16:40:00;;;;;;;4.20;3.80;;;27.40;45.30;;;;;;10367504;28;20263;-89
2023/06/22 16:45:03;;;;;;;5.18;4.20;;;27.40;43.00;;;;;;10360046;28;20704;-88
2023/06/22 16:50:06;;;;;;;4.47;4.07;;;27.50;44.20;;;;;;10366961;28;20240;-89
2023/06/22 16:55:10;;;;;;;4.75;3.83;;;27.40;43.30;;;;;;10333952;28;20711;-86
2023/06/22 17:00:13;;;;;;;3.85;3.45;;;27.40;39.70;;;;;;10319601;28;20326;-87
2023/06/22 17:05:19;;;;;;;6.05;4.43;;;27.40;48.90;;;;;;10306322;28;20311;-87
2023/06/22 17:10:22;;;;;;;3.85;3.55;;;27.30;46.80;;;;;;10259420;28;20605;-86
2023/06/22 17:15:30;;;;;;;4.03;3.65;;;27.20;50.10;;;;;;10300225;28;20688;-86
2023/06/22 17:20:33;;;;;;;5.68;4.70;;;27.10;49.50;;;;;;10326478;28;20241;-85
2023/06/22 17:25:37;;;;;;;4.85;4.38;;;27.00;45.40;;;;;;10289490;28;20336;-87
2023/06/22 17:30:39;;;;;;;3.92;3.53;;;27.00;48.20;;;;;;10286087;28;20795;-87
2023/06/22 17:35:47;;;;;;;4.20;3.85;;;27.00;49.60;;;;;;9603164;28;10000693;-86
2023/06/22 17:40:49;;;;;;;4.20;3.80;;;26.90;44.60;;;;;;10322090;28;20615;-86
2023/06/22 17:45:58;;;;;;;4.15;3.60;;;26.80;53.00;;;;;;10321315;28;20670;-86
2023/06/22 17:51:00;;;;;;;4.78;3.40;;;26.70;48.70;;;;;;10289819;28;20253;-87
2023/06/22 17:56:03;;;;;;;5.70;4.05;;;26.60;48.80;;;;;;10290132;28;20237;-86
2023/06/22 18:01:06;;;;;;;4.68;4.25;;;26.50;48.90;;;;;;10321998;28;20296;-86
2023/06/22 18:06:09;;;;;;;4.68;4.07;;;26.40;48.50;;;;;;10329543;28;20240;-86
2023/06/22 18:11:13;;;;;;;5.82;4.13;;;26.20;46.50;;;;;;10328541;28;20267;-86
2023/06/22 18:16:16;;;;;;;5.18;4.30;;;25.90;46.30;;;;;;10310666;28;21181;-85
2023/06/22 18:21:19;;;;;;;6.50;4.47;;;25.70;57.70;;;;;;10295277;28;20237;-85
2023/06/22 18:26:24;;;;;;;4.90;4.50;;;25.50;58.30;;;;;;10287995;28;20348;-86
2023/06/22 18:31:27;;;;;;;6.75;4.55;;;25.20;58.30;;;;;;10299586;28;20236;-86
2023/06/22 18:36:43;;;;;;;4.20;3.80;;;24.90;61.60;;;;;;10291878;28;20653;-86
2023/06/22 18:41:54;;;;;;;7.55;4.57;;;24.60;64.20;;;;;;10287652;28;20256;-84
2023/06/22 18:46:57;;;;;;;5.00;4.30;;;24.20;66.30;;;;;;10286907;28;20664;-91
2023/06/22 18:52:09;;;;;;;5.28;4.53;;;23.90;75.40;;;;;;10287140;28;20677;-88
2023/06/22 18:57:22;;;;;;;5.18;4.30;;;23.60;81.80;;;;;;10286407;28;20602;-89
2023/06/22 19:02:33;;;;;;;4.88;4.20;;;23.30;88.90;;;;;;10295043;28;20315;-88
2023/06/22 19:08:01;;;;;;;4.18;3.83;;;23.00;92.40;;;;;;10326592;28;20279;-87
2023/06/22 19:13:19;;;;;;;6.30;4.25;;;22.80;93.20;;;;;;10326750;28;20236;-88
2023/06/22 19:18:26;;;;;;;4.63;3.70;;;22.60;95.90;;;;;;10324833;28;20263;-88
2023/06/22 19:23:37;;;;;;;6.03;3.88;;;22.30;94.20;;;;;;10325063;28;20268;-88
2023/06/22 19:28:53;;;;;;;6.28;4.95;;;22.10;95.30;;;;;;10325617;28;20781;-88
2023/06/22 19:34:01;;;;;;;11.38;5.63;;;21.90;97.40;;;;;;10325061;28;20271;-88
2023/06/22 19:39:04;;;;;;;7.95;4.80;;;21.50;98.40;;;;;;10308089;28;20247;-87
2023/06/22 19:44:08;;;;;;;7.30;4.78;;;21.40;98.80;;;;;;10324332;28;20272;-87
2023/06/22 19:49:11;;;;;;;6.18;4.28;;;21.20;99.20;;;;;;10307369;28;20237;-87
2023/06/22 19:54:15;;;;;;;6.35;4.68;;;21.00;99.30;;;;;;10324165;28;20272;-87
2023/06/22 19:59:22;;;;;;;7.63;4.72;;;20.90;99.90;;;;;;10306552;28;20240;-85
2023/06/22 20:04:25;;;;;;;7.68;5.10;;;20.90;99.90;;;;;;10323832;28;20290;-86
2023/06/22 20:09:28;;;;;;;14.35;4.82;;;20.70;99.90;;;;;;10324378;28;20930;-86
2023/06/22 20:14:31;;;;;;;8.73;4.78;;;;;;;;;;10324595;28;20280;-87
2023/06/22 20:19:36;;;;;;;6.93;5.43;;;20.40;99.90;;;;;;10324274;28;20244;-86
2023/06/22 20:24:39;;;;;;;10.13;5.32;;;20.20;99.90;;;;;;10304649;28;20268;-86
2023/06/22 20:29:41;;;;;;;6.07;4.97;;;20.10;99.90;;;;;;10323374;28;20240;-87
2023/06/22 20:34:47;;;;;;;4.35;3.95;;;20.00;99.90;;;;;;10322603;28;20244;-87
2023/06/22 20:39:51;;;;;;;5.05;4.55;;;20.00;99.90;;;;;;10323172;28;20267;-86
2023/06/22 20:44:54;;;;;;;9.60;5.57;;;20.00;99.90;;;;;;10305137;28;20272;-85
2023/06/22 20:49:58;;;;;;;10.63;5.28;;;20.00;99.90;;;;;;10337806;28;20617;-88
2023/06/22 20:55:01;;;;;;;6.53;5.15;;;19.90;99.90;;;;;;10322892;28;20268;-88
2023/06/22 21:00:08;;;;;;;5.93;5.32;;;19.90;99.90;;;;;;10322245;28;20695;-88
2023/06/22 21:05:10;;;;;;;6.65;5.68;;;19.70;99.90;;;;;;10322821;28;20674;-87
2023/06/22 21:10:13;;;;;;;7.82;6.10;;;19.60;99.90;;;;;;10321828;28;20298;-88
2023/06/22 21:15:16;;;;;;;9.02;5.30;;;19.60;99.90;;;;;;10304594;28;20659;-88
2023/06/22 21:20:19;;;;;;;9.82;6.38;;;19.60;99.90;;;;;;10322410;28;20244;-87
2023/06/22 21:25:21;;;;;;;6.07;5.47;;;19.60;99.90;;;;;;10312676;28;20316;-86
2023/06/22 21:30:24;;;;;;;5.20;4.68;;;19.50;99.90;;;;;;10264796;28;20636;-87
2023/06/22 21:35:27;;;;;;;5.03;3.90;;;19.70;99.90;;;;;;10283828;28;20244;-86
2023/06/22 21:40:29;;;;;;;8.30;5.70;;;19.80;99.90;;;;;;10289650;28;20768;-88
2023/06/22 21:45:32;;;;;;;7.28;6.28;;;19.80;99.90;;;;;;10311085;28;20765;-87
2023/06/22 21:50:35;;;;;;;6.53;5.13;;;19.90;99.90;;;;;;10330030;28;20232;-88
2023/06/22 21:55:37;;;;;;;10.23;5.80;;;20.10;99.90;;;;;;10328558;28;20252;-87
2023/06/22 22:00:40;;;;;;;6.63;5.53;;;20.10;99.90;;;;;;10328809;28;20268;-87
2023/06/22 22:05:43;;;;;;;6.53;5.88;;;20.10;99.90;;;;;;10329107;28;20343;-86
2023/06/22 22:10:48;;;;;;;5.82;5.30;;;20.10;99.90;;;;;;10328670;28;20233;-87
2023/06/22 22:15:50;;;;;;;4.15;3.65;;;20.20;99.90;;;;;;10328413;28;20311;-87
2023/06/22 22:20:53;;;;;;;7.53;4.75;;;20.20;99.90;;;;;;10311014;28;20311;-87
2023/06/22 22:25:56;;;;;;;5.65;4.82;;;20.30;99.90;;;;;;10311961;28;20280;-87
2023/06/22 22:31:00;;;;;;;6.10;5.38;;;20.40;99.90;;;;;;10327860;28;20249;-86
2023/06/22 22:36:04;;;;;;;5.15;4.60;;;20.40;99.90;;;;;;10303465;28;20293;-87
2023/06/22 22:41:07;;;;;;;7.30;5.00;;;20.50;99.90;;;;;;10286882;28;20268;-86
2023/06/22 22:46:10;;;;;;;4.28;3.70;;;20.50;99.90;;;;;;10311101;28;20335;-87
2023/06/22 22:51:12;;;;;;;6.10;4.47;;;20.50;99.90;;;;;;10327431;28;20244;-86
2023/06/22 22:56:15;;;;;;;5.97;4.53;;;20.40;99.90;;;;;;10279398;28;20295;-86
2023/06/22 23:01:18;;;;;;;4.57;4.18;;;20.50;99.90;;;;;;10325690;28;20264;-86
2023/06/22 23:06:21;;;;;;;7.95;5.03;;;20.60;99.90;;;;;;10326071;28;20319;-86
2023/06/22 23:11:26;;;;;;;5.40;4.30;;;20.60;99.90;;;;;;10325984;28;20691;-87
2023/06/22 23:16:29;;;;;;;10.00;4.32;;;20.50;99.90;;;;;;10326455;28;20724;-86
2023/06/22 23:21:32;;;;;;;7.25;4.50;;;20.50;99.90;;;;;;10301809;28;20650;-87
2023/06/22 23:26:35;;;;;;;5.88;4.53;;;20.40;99.90;;;;;;10288460;28;20308;-86
2023/06/22 23:31:37;;;;;;;4.85;4.30;;;20.30;99.90;;;;;;10278996;28;20237;-86
2023/06/22 23:36:40;;;;;;;3.92;3.55;;;20.40;99.90;;;;;;10298094;28;20241;-87
2023/06/22 23:41:43;;;;;;;5.88;4.75;;;20.40;99.90;;;;;;10284984;28;20647;-86
2023/06/22 23:46:45;;;;;;;8.00;4.07;;;20.40;99.90;;;;;;10319155;28;20268;-87
2023/06/22 23:51:48;;;;;;;5.22;4.45;;;20.50;99.90;;;;;;10324482;28;20299;-86
2023/06/22 23:56:52;;;;;;;5.10;4.60;;;20.50;99.90;;;;;;10321022;28;20240;-86
